Portada
METAR-TAF:

METAR-TAF

Aeroports :

Changsha, Xina

latitud: 28-11N, longitud: 113-13E, altitud: 66 m

Observació

L'informe es va fer fa 14 minuts, a les 18:00 UTC
Vent 4 kt del Sud/Sud-Oest
Temperatura 28°C
Humitat 89%
Pressió 1004 hPa
Visibilitat 10 km o més
sense núvols per sota de 1500 mi sense presència de cumulonimbus.

METAR: ZGHA 111800Z 20002MPS CAVOK 28/26 Q1004 NOSIG

Hora: 02:14 (18:14 UTC)

Pronòstic

L'informe es va fer fa 3 hores i 12 minuts, a les 15:02 UTC
Pronòstic vàlid del 11 a les 18 UTC al 12 a les 18 UTC
Vent 8 kt del Sud/Sud-Est
Visibilitat: 6000 m
Núvols disperses a una alçada de 4000 ft

TAF: ZGHA 111502Z 1118/1218 16004MPS 6000 SCT040 TX35/1207Z TN27/1122Z

Observacions i pronòstics meteorològics de més de 4000 aeroports (METAR i TAF).

Les estacions disponibles són els punts grocs i vermells al mapa.

Posi el ratolí al punt desitjat per veure el nom de l'estació.

Feu clic per veure les observacions i els pronòstics meteorològics.

Per canviar el mapa: feu clic els botons verds amb una creu de color negre per apropar; al botó verd amb un guió per allunyar la imatge; o en les fletxes verdes per a mapes adjacents.


METAR-TAF: